Terminal Aerodrome Forecast
Issued by NWS

Home | Current Version | Previous Version | Text Only | Print | Product List | Glossary On
Versions: 1 2 3 4 5 6 7 8 9 10 11 12 13 14 15 16 17 18
000
FTAK31 PANC 250521
TAFADQ
TAF
PADQ 250521Z 2506/2606 25011KT P6SM SCT060
     FM252000 25011KT P6SM VCSH SCT040 BKN060=

USA.gov is the U.S. government's official web portal to all federal, state and local government web resources and services.